Time;durP1;ratioP1;P1;durP2;ratioP2;P2;SDS_P1;SDS_P2;PMS_P1;PMS_P2;Temp;Humidity;BMP_temperature;BMP_pressure;BME280_temperature;BME280_humidity;BME280_pressure;Samples;Min_cycle;Max_cycle;Signal;HPM_P1;HPM_P2
2021/06/19 00:00:29;;;;;;;;;;;;;;;29.13;62.33;98698.63;5073206;28;20333;-80
2021/06/19 00:02:55;;;;;;;;;;;;;;;28.98;56.50;98703.81;5055231;28;19942;-80
2021/06/19 00:05:20;;;;;;;;;;;;;;;28.42;64.58;98707.50;5039083;28;20488;-80
2021/06/19 00:07:46;;;;;;;;;;;;;;;27.92;66.65;98706.81;5058087;28;19928;-80
2021/06/19 00:10:13;;;;;;;;;;;;;;;27.21;70.26;98714.34;5058907;28;19924;-80
2021/06/19 00:12:38;;;;;;;;;;;;;;;27.50;66.98;98708.59;5077447;28;19924;-80
2021/06/19 00:15:05;;;;;;;;;;;;;;;27.52;66.65;98711.88;5058873;28;20441;-79
2021/06/19 00:17:30;;;;;;;;;;;;;;;27.05;68.85;98724.84;5042519;28;19920;-80
2021/06/19 00:19:55;;;;;;;;;;;;;;;27.04;69.40;98729.31;5040326;28;20318;-80
2021/06/19 00:22:21;;;;;;;;;;;;;;;26.55;72.11;98729.13;5058230;28;19928;-80
2021/06/19 00:24:46;;;;;;;;;;;;;;;27.19;68.00;98731.34;5058444;28;19924;-81
2021/06/19 00:27:11;;;;;;;;;;;;;;;26.88;69.81;98723.97;5076189;28;19924;-81
2021/06/19 00:29:37;;;;;;;;;;;;;;;27.20;68.53;98732.97;5058642;28;19924;-80
2021/06/19 00:32:02;;;;;;;;;;;;;;;27.24;67.52;98734.34;5075376;28;20013;-79
2021/06/19 00:34:28;;;;;;;;;;;;;;;27.97;58.59;98735.41;5058827;28;19917;-80
2021/06/19 00:36:53;;;;;;;;;;;;;;;27.81;60.42;98733.56;5058456;28;19982;-81
2021/06/19 00:39:18;;;;;;;;;;;;;;;28.08;63.41;98740.38;5058448;28;19932;-81
2021/06/19 00:41:44;;;;;;;;;;;;;;;27.97;58.96;98740.72;5058597;28;19959;-81
2021/06/19 00:44:16;;;;;;;;;;;;;;;28.07;62.35;98746.66;5058504;28;19974;-81
2021/06/19 00:46:42;;;;;;;;;;;;;;;27.39;66.70;98743.28;5076554;28;19920;-81
2021/06/19 00:49:07;;;;;;;;;;;;;;;26.77;70.18;98748.03;5058145;28;20176;-80
2021/06/19 00:51:32;;;;;;;;;;;;;;;26.48;75.08;98762.41;5057318;28;20071;-81
2021/06/19 00:53:58;;;;;;;;;;;;;;;26.55;75.64;98763.47;5041996;28;19920;-81
2021/06/19 00:56:23;;;;;;;;;;;;;;;26.01;81.56;98765.41;5058218;28;19968;-81
2021/06/19 00:58:49;;;;;;;;;;;;;;;25.93;82.04;98754.75;5057127;28;19924;-80
2021/06/19 01:01:15;;;;;;;;;;;;;;;26.00;80.20;98761.09;5040355;28;19931;-81
2021/06/19 01:03:41;;;;;;;;;;;;;;;26.31;78.85;98750.09;5039395;28;20121;-81
2021/06/19 01:06:06;;;;;;;;;;;;;;;26.05;82.33;98750.91;5041244;28;19920;-81
2021/06/19 01:08:32;;;;;;;;;;;;;;;27.05;72.86;98746.84;5056310;28;20387;-81
2021/06/19 01:10:57;;;;;;;;;;;;;;;27.16;69.11;98750.97;5057396;28;20411;-81
2021/06/19 01:13:22;;;;;;;;;;;;;;;26.09;79.25;98760.16;5074793;28;21484;-81
2021/06/19 01:15:48;;;;;;;;;;;;;;;26.43;76.26;98762.03;5074733;28;19956;-81
2021/06/19 01:18:13;;;;;;;;;;;;;;;26.60;75.63;98758.53;5055633;28;19924;-80
2021/06/19 01:20:38;;;;;;;;;;;;;;;26.58;71.54;98755.22;5039636;28;19935;-81
2021/06/19 01:23:04;;;;;;;;;;;;;;;26.68;72.63;98760.38;5039018;28;19924;-81
2021/06/19 01:25:32;;;;;;;;;;;;;;;26.11;79.80;98770.56;5057502;28;19924;-81
2021/06/19 01:27:57;;;;;;;;;;;;;;;26.11;80.38;98766.13;5056499;28;20509;-80
2021/06/19 01:30:23;;;;;;;;;;;;;;;27.15;69.00;98767.00;5074642;28;20050;-80
2021/06/19 01:32:49;;;;;;;;;;;;;;;26.34;78.39;98771.72;5056678;28;20479;-79
2021/06/19 01:35:15;;;;;;;;;;;;;;;26.67;74.93;98775.41;5056757;28;19924;-80
2021/06/19 01:37:44;;;;;;;;;;;;;;;26.93;72.32;98771.88;5074936;28;19985;-82
2021/06/19 01:40:10;;;;;;;;;;;;;;;26.82;74.09;98777.44;5057590;28;19985;-81
2021/06/19 01:42:42;;;;;;;;;;;;;;;25.59;82.32;98781.81;5074650;28;19928;-81
2021/06/19 01:45:12;;;;;;;;;;;;;;;26.73;78.56;98773.13;5039715;28;20591;-81
2021/06/19 01:47:37;;;;;;;;;;;;;;;26.29;78.63;98777.47;5056097;28;20043;-81
2021/06/19 01:50:07;;;;;;;;;;;;;;;26.76;76.50;98778.09;5057354;28;20405;-82
2021/06/19 01:52:32;;;;;;;;;;;;;;;26.57;72.97;98785.28;5039727;28;19923;-81
2021/06/19 01:54:57;;;;;;;;;;;;;;;27.22;74.11;98779.44;5074660;28;19920;-82
2021/06/19 01:57:22;;;;;;;;;;;;;;;27.29;71.89;98790.22;5056261;28;19920;-81
2021/06/19 01:59:48;;;;;;;;;;;;;;;27.54;71.27;98783.97;5074147;28;19916;-81
2021/06/19 02:02:13;;;;;;;;;;;;;;;27.29;69.79;98790.22;5055896;28;20342;-80
2021/06/19 02:04:38;;;;;;;;;;;;;;;26.44;77.07;98795.41;5056424;28;19982;-81
2021/06/19 02:07:04;;;;;;;;;;;;;;;25.98;81.18;98807.91;5039018;28;20335;-82
2021/06/19 02:09:29;;;;;;;;;;;;;;;26.34;72.25;98813.97;5074743;28;19924;-80
2021/06/19 02:11:54;;;;;;;;;;;;;;;26.28;80.20;98812.78;5055579;28;19986;-81
2021/06/19 02:14:19;;;;;;;;;;;;;;;27.00;74.42;98812.53;5056753;28;19924;-81
2021/06/19 02:16:45;;;;;;;;;;;;;;;27.22;71.86;98803.25;5055086;28;19928;-80
2021/06/19 02:19:11;;;;;;;;;;;;;;;27.12;71.04;98811.28;5055969;28;20024;-81
2021/06/19 02:21:37;;;;;;;;;;;;;;;27.17;65.56;98809.97;5038766;28;20367;-80
2021/06/19 02:24:02;;;;;;;;;;;;;;;27.10;71.93;98812.44;5055647;28;19924;-81
2021/06/19 02:26:28;;;;;;;;;;;;;;;27.03;69.09;98814.88;5055383;28;19931;-80
2021/06/19 02:28:53;;;;;;;;;;;;;;;27.03;71.56;98822.00;5055569;28;19924;-81
2021/06/19 02:31:20;;;;;;;;;;;;;;;26.19;76.09;98815.50;5054542;28;19920;-80
2021/06/19 02:33:47;;;;;;;;;;;;;;;25.64;79.63;98813.84;5074294;28;19928;-81
2021/06/19 02:36:13;;;;;;;;;;;;;;;25.46;82.30;98812.03;5039588;28;19924;-80
2021/06/19 02:38:38;;;;;;;;;;;;;;;26.10;75.96;98806.69;5039110;28;20620;-80
2021/06/19 02:41:03;;;;;;;;;;;;;;;26.64;69.01;98815.34;5073015;28;19931;-80
2021/06/19 02:43:29;;;;;;;;;;;;;;;26.75;68.22;98814.25;5074216;28;20443;-81
2021/06/19 02:45:58;;;;;;;;;;;;;;;26.97;63.62;98806.75;5055331;28;20404;-80
2021/06/19 02:48:24;;;;;;;;;;;;;;;26.52;72.56;98808.63;5074205;28;20878;-80
2021/06/19 02:50:49;;;;;;;;;;;;;;;26.89;72.53;98815.47;5073886;28;19924;-80
2021/06/19 02:53:15;;;;;;;;;;;;;;;26.63;72.81;98810.22;5055118;28;19978;-81
2021/06/19 02:55:41;;;;;;;;;;;;;;;26.78;72.47;98813.94;5038205;28;19934;-81
2021/06/19 02:58:07;;;;;;;;;;;;;;;26.78;72.79;98808.66;5073231;28;19977;-80
2021/06/19 03:00:32;;;;;;;;;;;;;;;26.83;68.92;98810.81;5037668;28;20219;-80
2021/06/19 03:02:57;;;;;;;;;;;;;;;26.91;70.67;98808.22;5038101;28;20371;-80
2021/06/19 03:05:24;;;;;;;;;;;;;;;26.79;70.15;98804.19;5055031;28;19920;-80
2021/06/19 03:07:49;;;;;;;;;;;;;;;26.65;74.14;98798.50;5040566;28;19924;-80
2021/06/19 03:10:16;;;;;;;;;;;;;;;26.48;70.90;98807.31;5039791;28;19970;-81
2021/06/19 03:12:42;;;;;;;;;;;;;;;26.50;70.06;98807.94;5040185;28;20468;-81
2021/06/19 03:15:08;;;;;;;;;;;;;;;26.41;73.73;98808.88;5072993;28;19924;-81
2021/06/19 03:17:33;;;;;;;;;;;;;;;26.44;74.79;98805.97;5041472;28;20345;-81
2021/06/19 03:19:58;;;;;;;;;;;;;;;26.36;76.45;98803.25;5039964;28;20316;-81
2021/06/19 03:22:24;;;;;;;;;;;;;;;26.14;73.95;98809.84;5054698;28;19935;-81
2021/06/19 03:24:49;;;;;;;;;;;;;;;26.28;74.72;98807.50;5038105;28;19924;-81
2021/06/19 03:27:16;;;;;;;;;;;;;;;26.32;75.73;98807.19;5071049;28;20360;-81
2021/06/19 03:29:41;;;;;;;;;;;;;;;26.22;65.35;98813.38;5054143;28;19923;-81
2021/06/19 03:32:07;;;;;;;;;;;;;;;26.28;75.72;98814.59;5054638;28;19963;-82
2021/06/19 03:34:33;;;;;;;;;;;;;;;26.15;75.80;98807.06;5054683;28;19924;-81
2021/06/19 03:36:59;;;;;;;;;;;;;;;26.15;77.08;98807.06;5037670;28;20015;-81
2021/06/19 03:39:25;;;;;;;;;;;;;;;26.20;74.66;98810.06;5039015;28;19928;-81
2021/06/19 03:41:50;;;;;;;;;;;;;;;26.11;78.15;98810.97;5058473;28;19985;-81
2021/06/19 03:44:15;;;;;;;;;;;;;;;26.05;74.12;98803.69;5058306;28;19924;-81
2021/06/19 03:46:41;;;;;;;;;;;;;;;25.99;74.39;98812.22;5058559;28;20414;-81
2021/06/19 03:49:06;;;;;;;;;;;;;;;25.71;79.69;98812.28;5041951;28;19930;-81
2021/06/19 03:51:31;;;;;;;;;;;;;;;25.72;75.38;98821.81;5057400;28;19923;-81
2021/06/19 03:53:57;;;;;;;;;;;;;;;25.69;76.66;98818.69;5075403;28;19935;-81
2021/06/19 03:56:22;;;;;;;;;;;;;;;25.91;78.01;98814.78;5076343;28;19920;-81
2021/06/19 03:58:47;;;;;;;;;;;;;;;25.54;78.82;98824.44;5076154;28;20398;-81
2021/06/19 04:01:13;;;;;;;;;;;;;;;26.03;74.06;98832.06;5075450;28;20486;-81
2021/06/19 04:03:39;;;;;;;;;;;;;;;26.14;72.90;98826.53;5056511;28;19924;-80
2021/06/19 04:06:04;;;;;;;;;;;;;;;26.28;78.52;98839.19;5056438;28;19928;-80
2021/06/19 04:08:29;;;;;;;;;;;;;;;25.61;81.08;98832.59;5057364;28;19928;-81
2021/06/19 04:10:55;;;;;;;;;;;;;;;25.01;87.96;98839.13;5074466;28;20079;-80
2021/06/19 04:13:20;;;;;;;;;;;;;;;24.65;91.75;98845.22;5057431;28;20045;-80
2021/06/19 04:15:45;;;;;;;;;;;;;;;25.41;86.39;98845.91;5058136;28;19928;-81
2021/06/19 04:18:11;;;;;;;;;;;;;;;25.77;84.47;98843.34;5057123;28;19924;-80
2021/06/19 04:20:36;;;;;;;;;;;;;;;25.75;83.43;98847.06;5041370;28;20447;-81
2021/06/19 04:23:01;;;;;;;;;;;;;;;26.20;79.64;98843.56;5057616;28;19928;-81
2021/06/19 04:25:28;;;;;;;;;;;;;;;26.13;78.46;98845.97;5075901;28;19927;-81
2021/06/19 04:27:54;;;;;;;;;;;;;;;26.88;72.40;98853.47;5057769;28;19963;-80
2021/06/19 04:30:20;;;;;;;;;;;;;;;26.24;80.71;98851.03;5057867;28;19959;-81
2021/06/19 04:32:45;;;;;;;;;;;;;;;26.49;75.19;98856.50;5057279;28;20228;-80
2021/06/19 04:35:13;;;;;;;;;;;;;;;27.06;73.84;98862.13;5057223;28;19931;-81
2021/06/19 04:37:38;;;;;;;;;;;;;;;27.02;76.93;98865.25;5039974;28;20390;-81
2021/06/19 04:40:17;;;;;;;;;;;;;;;26.98;76.58;98872.69;5074200;28;20011;-80
2021/06/19 04:42:46;;;;;;;;;;;;;;;26.94;80.77;98871.34;5059021;28;20367;-80
2021/06/19 04:45:13;;;;;;;;;;;;;;;26.64;79.19;98880.53;5057251;28;19924;-80
2021/06/19 04:47:39;;;;;;;;;;;;;;;27.03;79.39;98880.13;5074667;28;19920;-81
2021/06/19 04:50:05;;;;;;;;;;;;;;;26.96;77.32;98874.66;5055780;28;21021;-81
2021/06/19 04:52:32;;;;;;;;;;;;;;;26.92;80.47;98879.41;5039011;28;19952;-81
2021/06/19 04:54:57;;;;;;;;;;;;;;;26.62;81.89;98891.28;5055911;28;19924;-81
2021/06/19 04:57:22;;;;;;;;;;;;;;;27.19;73.23;98884.69;5074944;28;19927;-81
2021/06/19 04:59:48;;;;;;;;;;;;;;;27.17;77.25;98891.94;5057330;28;19920;-81
2021/06/19 05:02:15;;;;;;;;;;;;;;;27.47;78.54;98887.97;5057180;28;19927;-80
2021/06/19 05:04:41;;;;;;;;;;;;;;;27.07;82.22;98892.88;5041871;28;19920;-81
2021/06/19 05:07:06;;;;;;;;;;;;;;;27.43;81.53;98903.31;5038861;28;19924;-80
2021/06/19 05:09:31;;;;;;;;;;;;;;;27.39;79.24;98899.31;5055776;28;20303;-81
2021/06/19 05:11:57;;;;;;;;;;;;;;;28.05;71.92;98891.59;5040647;28;20004;-81
2021/06/19 05:14:22;;;;;;;;;;;;;;;28.03;69.86;98898.84;5057885;28;19963;-81
2021/06/19 05:16:47;;;;;;;;;;;;;;;28.35;72.54;98893.59;5056138;28;19967;-80
2021/06/19 05:19:13;;;;;;;;;;;;;;;27.99;66.24;98900.19;5073560;28;19928;-81
2021/06/19 05:21:39;;;;;;;;;;;;;;;28.33;68.53;98902.72;5074603;28;19924;-81
2021/06/19 05:24:04;;;;;;;;;;;;;;;27.84;69.85;98900.81;5055919;28;19923;-80
2021/06/19 05:26:29;;;;;;;;;;;;;;;27.91;72.64;98901.81;5055774;28;19920;-81
2021/06/19 05:28:55;;;;;;;;;;;;;;;26.43;83.54;98904.63;5074591;28;19928;-81
2021/06/19 05:31:20;;;;;;;;;;;;;;;27.24;73.27;98914.16;5055967;28;20415;-82
2021/06/19 05:33:46;;;;;;;;;;;;;;;26.06;82.45;98908.25;5040243;28;19990;-83
2021/06/19 05:36:11;;;;;;;;;;;;;;;25.87;86.67;98899.50;5055807;28;20307;-83
2021/06/19 05:38:36;;;;;;;;;;;;;;;26.16;82.95;98901.13;5073546;28;19970;-83
2021/06/19 05:41:02;;;;;;;;;;;;;;;26.57;81.47;98914.69;5074211;28;19993;-81
2021/06/19 05:43:27;;;;;;;;;;;;;;;26.85;80.99;98912.72;5057071;28;20552;-82
2021/06/19 05:45:52;;;;;;;;;;;;;;;26.20;80.64;98913.00;5074623;28;19920;-85
2021/06/19 05:48:18;;;;;;;;;;;;;;;26.06;83.78;98919.66;5056318;28;20028;-82
2021/06/19 05:50:44;;;;;;;;;;;;;;;26.28;84.69;98917.56;5055818;28;20825;-81
2021/06/19 05:53:09;;;;;;;;;;;;;;;25.80;86.87;98908.97;5055911;28;19924;-82
2021/06/19 05:55:34;;;;;;;;;;;;;;;27.03;79.50;98911.84;5071838;28;19924;-82
2021/06/19 05:57:59;;;;;;;;;;;;;;;26.78;80.52;98910.88;5056051;28;19959;-81
2021/06/19 06:00:26;;;;;;;;;;;;;;;26.59;81.16;98902.13;5071400;28;19979;-84
2021/06/19 06:02:52;;;;;;;;;;;;;;;26.99;75.54;98913.16;5054875;28;19920;-81
2021/06/19 06:05:17;;;;;;;;;;;;;;;26.95;77.74;98917.09;5056587;28;19924;-82
2021/06/19 06:07:43;;;;;;;;;;;;;;;26.88;80.82;98919.53;5056294;28;19931;-87
2021/06/19 06:10:08;;;;;;;;;;;;;;;26.36;80.28;98924.72;5055823;28;19927;-84
2021/06/19 06:12:34;;;;;;;;;;;;;;;26.70;83.82;98920.38;5055733;28;19931;-86
2021/06/19 06:14:59;;;;;;;;;;;;;;;27.80;78.62;98925.91;5054648;28;20295;-87
2021/06/19 06:17:25;;;;;;;;;;;;;;;27.13;82.58;98920.50;5040182;28;20291;-85
2021/06/19 06:19:51;;;;;;;;;;;;;;;27.85;81.02;98928.94;5040271;28;19978;-85
2021/06/19 06:22:16;;;;;;;;;;;;;;;27.13;78.69;98934.53;5037425;28;20019;-84
2021/06/19 06:24:41;;;;;;;;;;;;;;;26.28;92.44;98923.66;5038673;28;19931;-86
2021/06/19 06:27:07;;;;;;;;;;;;;;;27.17;79.56;98924.47;5056515;28;19924;-81
2021/06/19 06:29:32;;;;;;;;;;;;;;;27.35;81.81;98927.09;5073964;28;19967;-82
2021/06/19 06:31:58;;;;;;;;;;;;;;;27.34;83.34;98917.47;5054058;28;20496;-83
2021/06/19 06:34:24;;;;;;;;;;;;;;;28.23;78.22;98913.44;5039218;28;19924;-83
2021/06/19 06:36:49;;;;;;;;;;;;;;;28.38;74.99;98913.63;5038699;28;20026;-81
2021/06/19 06:39:15;;;;;;;;;;;;;;;27.06;82.31;98922.09;5053199;28;19946;-82
2021/06/19 06:41:40;;;;;;;;;;;;;;;27.15;80.64;98917.69;5055662;28;19963;-81
2021/06/19 06:44:06;;;;;;;;;;;;;;;28.21;72.49;98920.72;5055391;28;19935;-80
2021/06/19 06:46:32;;;;;;;;;;;;;;;27.27;75.76;98934.97;5054522;28;19924;-80
2021/06/19 06:48:57;;;;;;;;;;;;;;;27.60;80.44;98935.09;5053151;28;19935;-81
2021/06/19 06:51:22;;;;;;;;;;;;;;;28.46;75.42;98933.97;5051984;28;19951;-78
2021/06/19 06:53:48;;;;;;;;;;;;;;;28.64;69.45;98928.56;5051686;28;19928;-78
2021/06/19 06:56:13;;;;;;;;;;;;;;;28.33;69.33;98931.84;5028264;28;19985;-77
2021/06/19 06:58:39;;;;;;;;;;;;;;;28.01;75.52;98932.59;5068078;28;19947;-77
2021/06/19 07:01:04;;;;;;;;;;;;;;;29.66;63.44;98934.94;5051087;28;19927;-79
2021/06/19 07:03:29;;;;;;;;;;;;;;;30.03;59.18;98947.53;5065135;28;19981;-86
2021/06/19 07:05:54;;;;;;;;;;;;;;;30.12;60.00;98934.19;5035995;28;19920;-82
2021/06/19 07:08:20;;;;;;;;;;;;;;;29.43;62.86;98934.88;5051147;28;20374;-83
2021/06/19 07:10:45;;;;;;;;;;;;;;;30.20;61.45;98932.31;5049817;28;19924;-83
2021/06/19 07:13:12;;;;;;;;;;;;;;;28.68;61.28;98936.00;5052237;28;20380;-84
2021/06/19 07:15:37;;;;;;;;;;;;;;;29.93;56.23;98941.63;5051715;28;19924;-84
2021/06/19 07:18:03;;;;;;;;;;;;;;;30.60;52.46;98940.16;5048784;28;20322;-84
2021/06/19 07:20:28;;;;;;;;;;;;;;;28.91;72.15;98951.22;5053326;28;19920;-84
2021/06/19 07:22:54;;;;;;;;;;;;;;;29.44;57.10;98956.91;5036620;28;20069;-84
2021/06/19 07:25:19;;;;;;;;;;;;;;;28.82;60.20;98958.34;5052936;28;19920;-85
2021/06/19 07:27:47;;;;;;;;;;;;;;;29.93;64.30;98959.38;5036710;28;19975;-85
2021/06/19 07:30:13;;;;;;;;;;;;;;;30.13;56.08;98962.41;5052983;28;19927;-85
2021/06/19 07:32:38;;;;;;;;;;;;;;;28.87;64.01;98956.00;5053579;28;19920;-86
2021/06/19 07:35:05;;;;;;;;;;;;;;;29.55;60.35;98960.00;5035186;28;19928;-89
2021/06/19 07:37:51;;;;;;;;;;;;;;;28.46;68.47;98960.47;5061102;28;20014;-90
2021/06/19 07:40:27;;;;;;;;;;;;;;;30.37;59.07;98951.66;5011326;28;19931;-90
2021/06/19 07:42:54;;;;;;;;;;;;;;;29.17;61.43;98957.16;5075488;28;19931;-88
2021/06/19 07:45:19;;;;;;;;;;;;;;;31.29;53.30;98957.81;5040346;28;20295;-89
2021/06/19 07:47:44;;;;;;;;;;;;;;;29.76;59.87;98955.97;5058629;28;19928;-91
2021/06/19 07:50:10;;;;;;;;;;;;;;;27.64;66.52;98952.31;5042528;28;19920;-89
2021/06/19 07:52:35;;;;;;;;;;;;;;;27.26;68.70;98943.91;5041901;28;19928;-88
2021/06/19 07:55:01;;;;;;;;;;;;;;;27.44;66.84;98946.47;5042753;28;19920;-88
2021/06/19 07:57:26;;;;;;;;;;;;;;;28.10;61.20;98952.81;5038762;28;19928;-84
2021/06/19 07:59:51;;;;;;;;;;;;;;;30.38;48.76;98950.66;5055535;28;20638;-85
2021/06/19 08:02:17;;;;;;;;;;;;;;;29.53;59.79;98959.34;5053463;28;20664;-87
2021/06/19 08:04:43;;;;;;;;;;;;;;;29.18;58.13;98958.81;5036604;28;19931;-84
2021/06/19 08:07:10;;;;;;;;;;;;;;;29.91;56.43;98954.25;5051890;28;19920;-85
2021/06/19 08:09:35;;;;;;;;;;;;;;;29.86;55.76;98951.28;5053561;28;19920;-84
2021/06/19 08:12:01;;;;;;;;;;;;;;;28.63;62.14;98959.53;5053041;28;19935;-86
2021/06/19 08:14:26;;;;;;;;;;;;;;;28.04;64.42;98958.78;5035559;28;20572;-86
2021/06/19 08:16:54;;;;;;;;;;;;;;;29.13;58.11;98950.53;5071882;28;20020;-85
2021/06/19 08:19:19;;;;;;;;;;;;;;;28.45;65.20;98950.88;5038278;28;19927;-85
2021/06/19 08:21:45;;;;;;;;;;;;;;;27.93;72.10;98958.06;5052795;28;19920;-84
2021/06/19 08:24:10;;;;;;;;;;;;;;;27.34;69.14;98954.50;5054795;28;19924;-84
2021/06/19 08:26:37;;;;;;;;;;;;;;;27.36;67.54;98955.19;5038625;28;19928;-84
2021/06/19 08:29:05;;;;;;;;;;;;;;;27.72;64.09;98960.31;5075328;28;19924;-84
2021/06/19 08:31:38;;;;;;;;;;;;;;;27.69;63.35;98955.34;5056348;28;19964;-84
2021/06/19 08:34:03;;;;;;;;;;;;;;;27.79;70.01;98956.03;5039699;28;19924;-85
2021/06/19 08:36:29;;;;;;;;;;;;;;;28.32;67.71;98946.88;5054318;28;19958;-85
2021/06/19 08:38:54;;;;;;;;;;;;;;;28.50;65.20;98944.13;5056845;28;19924;-85
2021/06/19 08:41:20;;;;;;;;;;;;;;;28.43;67.58;98936.97;5037853;28;19930;-85
2021/06/19 08:43:45;;;;;;;;;;;;;;;29.09;64.09;98935.97;5056831;28;19932;-84
2021/06/19 08:46:10;;;;;;;;;;;;;;;28.80;68.22;98939.13;5038639;28;19920;-85
2021/06/19 08:48:38;;;;;;;;;;;;;;;28.99;55.94;98932.66;5040078;28;20413;-85
2021/06/19 08:51:03;;;;;;;;;;;;;;;29.86;54.19;98940.69;5035907;28;20018;-85
2021/06/19 08:53:29;;;;;;;;;;;;;;;28.61;62.47;98939.50;5039201;28;19924;-85
2021/06/19 08:55:54;;;;;;;;;;;;;;;28.58;63.79;98930.06;5057587;28;19926;-84
2021/06/19 08:58:19;;;;;;;;;;;;;;;28.92;57.93;98926.34;5040089;28;19919;-83
2021/06/19 09:00:45;;;;;;;;;;;;;;;29.36;51.96;98921.47;5054087;28;19920;-85
2021/06/19 09:03:24;;;;;;;;;;;;;;;30.84;53.71;98934.66;5056853;28;19920;-84
2021/06/19 09:05:51;;;;;;;;;;;;;;;30.12;53.75;98923.56;5073836;28;19994;-84
2021/06/19 09:08:16;;;;;;;;;;;;;;;29.38;57.85;98926.59;5074837;28;19926;-84
2021/06/19 09:10:41;;;;;;;;;;;;;;;31.95;44.68;98925.88;5038478;28;19947;-84
2021/06/19 09:13:14;;;;;;;;;;;;;;;30.23;51.69;98925.81;5054887;28;19935;-83
2021/06/19 09:15:39;;;;;;;;;;;;;;;33.25;47.71;98925.56;5037966;28;19924;-84
2021/06/19 09:18:11;;;;;;;;;;;;;;;31.35;45.78;98935.78;5055583;28;19927;-84
2021/06/19 09:20:36;;;;;;;;;;;;;;;33.74;47.17;98918.41;5055763;28;19924;-84
2021/06/19 09:23:02;;;;;;;;;;;;;;;32.82;40.66;98920.38;5074049;28;20410;-84
2021/06/19 09:25:28;;;;;;;;;;;;;;;34.61;37.76;98915.88;5056039;28;19927;-84
2021/06/19 09:27:55;;;;;;;;;;;;;;;34.84;35.64;98923.50;5039629;28;19924;-84
2021/06/19 09:30:21;;;;;;;;;;;;;;;32.07;46.43;98917.25;5056252;28;19989;-84
2021/06/19 09:32:48;;;;;;;;;;;;;;;33.48;40.64;98911.94;5074812;28;19924;-84
2021/06/19 09:35:24;;;;;;;;;;;;;;;33.38;41.04;98915.97;5056440;28;19920;-84
2021/06/19 09:37:50;;;;;;;;;;;;;;;32.83;43.00;98914.00;5039074;28;19924;-84
2021/06/19 09:40:18;;;;;;;;;;;;;;;31.83;44.94;98917.56;5057240;28;20741;-84
2021/06/19 09:42:43;;;;;;;;;;;;;;;30.53;57.78;98910.81;5056777;28;19970;-84
2021/06/19 09:45:16;;;;;;;;;;;;;;;30.06;51.80;98903.03;5057020;28;20035;-84
2021/06/19 09:47:42;;;;;;;;;;;;;;;31.89;43.98;98908.81;5037648;28;19936;-84
2021/06/19 09:50:07;;;;;;;;;;;;;;;33.18;43.90;98906.00;5056278;28;19920;-84
2021/06/19 09:52:33;;;;;;;;;;;;;;;30.86;47.33;98910.56;5057114;28;19920;-84
2021/06/19 09:54:59;;;;;;;;;;;;;;;30.92;51.23;98915.13;5040641;28;19947;-84
2021/06/19 09:57:45;;;;;;;;;;;;;;;32.02;51.39;98911.66;5056688;28;20019;-84
2021/06/19 10:00:11;;;;;;;;;;;;;;;31.30;49.58;98916.91;5071667;28;19930;-84
2021/06/19 10:02:37;;;;;;;;;;;;;;;31.09;44.65;98912.28;5039650;28;19924;-84
2021/06/19 10:05:03;;;;;;;;;;;;;;;32.05;43.43;98913.94;5055342;28;20032;-85
2021/06/19 10:07:30;;;;;;;;;;;;;;;33.71;42.11;98908.94;5055837;28;20685;-85
2021/06/19 10:09:56;;;;;;;;;;;;;;;36.19;43.01;98902.97;5056440;28;20365;-84
2021/06/19 10:12:28;;;;;;;;;;;;;;;35.98;34.64;98901.44;5055403;28;19978;-84
2021/06/19 10:14:55;;;;;;;;;;;;;;;34.75;37.65;98898.81;5036753;28;20369;-84
2021/06/19 10:17:24;;;;;;;;;;;;;;;32.55;40.16;98889.16;5053747;28;19924;-84
2021/06/19 10:19:49;;;;;;;;;;;;;;;35.85;37.10;98881.97;5038514;28;19977;-84
2021/06/19 10:22:15;;;;;;;;;;;;;;;35.99;35.04;98881.66;5051498;28;19924;-84
2021/06/19 10:24:43;;;;;;;;;;;;;;;36.80;36.92;98871.94;5055187;28;19920;-84
2021/06/19 10:27:08;;;;;;;;;;;;;;;34.49;35.48;98865.69;5038925;28;19920;-84
2021/06/19 10:29:33;;;;;;;;;;;;;;;33.13;36.25;98857.75;5037975;28;20536;-84
2021/06/19 10:31:59;;;;;;;;;;;;;;;31.23;38.24;98856.44;5053290;28;20103;-84
2021/06/19 10:34:31;;;;;;;;;;;;;;;36.06;33.46;98854.81;5053765;28;19931;-84
2021/06/19 10:36:58;;;;;;;;;;;;;;;34.38;36.09;98855.59;5053677;28;19920;-84
2021/06/19 10:39:39;;;;;;;;;;;;;;;35.20;33.19;98853.44;5050778;28;21060;-84
2021/06/19 10:42:06;;;;;;;;;;;;;;;36.47;34.28;98850.75;5047484;28;19928;-85
2021/06/19 10:44:53;;;;;;;;;;;;;;;36.87;33.77;98839.66;5050024;28;19929;-85
2021/06/19 10:47:19;;;;;;;;;;;;;;;37.29;33.25;98841.66;5052297;28;19989;-86
2021/06/19 10:49:45;;;;;;;;;;;;;;;36.03;32.18;98839.16;5035734;28;20323;-86
2021/06/19 10:52:22;;;;;;;;;;;;;;;36.69;32.12;98842.34;5039364;28;20012;-84
2021/06/19 10:55:17;;;;;;;;;;;;;;;36.73;26.76;98838.16;5070053;28;19923;-83
2021/06/19 10:57:46;;;;;;;;;;;;;;;36.90;31.88;98839.19;5052913;28;20622;-85
2021/06/19 11:00:38;;;;;;;;;;;;;;;37.19;30.40;98842.19;5053254;28;20210;-86
2021/06/19 11:03:05;;;;;;;;;;;;;;;34.81;31.93;98843.63;5048089;28;19930;-83
2021/06/19 11:05:50;;;;;;;;;;;;;;;35.50;31.12;98840.28;5037036;28;20050;-83
2021/06/19 11:08:16;;;;;;;;;;;;;;;35.81;31.68;98834.16;5071282;28;19920;-83
2021/06/19 11:10:44;;;;;;;;;;;;;;;34.76;36.01;98830.88;5053435;28;19933;-83
2021/06/19 11:13:33;;;;;;;;;;;;;;;31.55;35.85;98835.75;5055806;28;19963;-83
2021/06/19 11:16:02;;;;;;;;;;;;;;;34.09;30.98;98830.09;5053211;28;19935;-83
2021/06/19 11:18:46;;;;;;;;;;;;;;;37.57;30.99;98831.19;5055646;28;19974;-83
2021/06/19 11:21:12;;;;;;;;;;;;;;;33.75;32.85;98827.38;5070620;28;19931;-83
2021/06/19 11:23:57;;;;;;;;;;;;;;;33.48;34.45;98825.63;5053593;28;19924;-83
2021/06/19 11:26:41;;;;;;;;;;;;;;;31.89;40.07;98826.25;5070388;28;19931;-82
2021/06/19 11:29:25;;;;;;;;;;;;;;;32.17;39.40;98820.19;5071397;28;19939;-82
2021/06/19 11:31:50;;;;;;;;;;;;;;;32.38;35.10;98822.78;5071274;28;19927;-82
2021/06/19 11:34:34;;;;;;;;;;;;;;;35.63;31.67;98815.34;5052496;28;19924;-82
2021/06/19 11:36:59;;;;;;;;;;;;;;;33.98;39.25;98809.31;5067166;28;20035;-82
2021/06/19 11:39:34;;;;;;;;;;;;;;;33.30;35.12;98807.50;5036254;28;19924;-82
2021/06/19 11:41:59;;;;;;;;;;;;;;;33.53;36.00;98801.84;5035504;28;19999;-82
2021/06/19 11:44:31;;;;;;;;;;;;;;;33.95;34.66;98800.69;5052034;28;19927;-82
2021/06/19 11:46:57;;;;;;;;;;;;;;;32.60;37.47;98796.13;5054072;28;20882;-82
2021/06/19 11:49:23;;;;;;;;;;;;;;;36.63;32.44;98788.53;5053052;28;19920;-82
2021/06/19 11:51:49;;;;;;;;;;;;;;;35.79;34.81;98779.16;5035943;28;19923;-83
2021/06/19 11:54:14;;;;;;;;;;;;;;;34.44;34.35;98777.25;5053330;28;20014;-82
2021/06/19 11:56:40;;;;;;;;;;;;;;;35.56;31.80;98764.44;5049663;28;19931;-82
2021/06/19 11:59:06;;;;;;;;;;;;;;;34.65;34.43;98770.84;5037194;28;20006;-82
2021/06/19 12:01:38;;;;;;;;;;;;;;;37.73;29.52;98773.28;5038573;28;19928;-82
2021/06/19 12:04:04;;;;;;;;;;;;;;;37.01;30.29;98773.19;5075267;28;19920;-81
2021/06/19 12:06:30;;;;;;;;;;;;;;;38.33;32.06;98776.84;5056955;28;19920;-83
2021/06/19 12:08:55;;;;;;;;;;;;;;;38.27;29.57;98767.81;5057944;28;19934;-83
2021/06/19 12:11:31;;;;;;;;;;;;;;;35.86;32.47;98771.88;5054959;28;19931;-84
2021/06/19 12:13:56;;;;;;;;;;;;;;;38.15;27.76;98775.91;5057791;28;20211;-84
2021/06/19 12:16:32;;;;;;;;;;;;;;;34.34;33.15;98769.63;5073126;28;20575;-83
2021/06/19 12:18:57;;;;;;;;;;;;;;;38.14;28.61;98768.06;5056777;28;19924;-83
2021/06/19 12:21:28;;;;;;;;;;;;;;;36.35;28.01;98766.72;5057413;28;21048;-87
2021/06/19 12:23:54;;;;;;;;;;;;;;;38.31;29.36;98762.78;5069085;28;19927;-88
2021/06/19 12:26:19;;;;;;;;;;;;;;;37.13;33.71;98762.53;5057245;28;19919;-89
2021/06/19 12:28:46;;;;;;;;;;;;;;;37.02;28.61;98756.88;5055865;28;19924;-88
2021/06/19 12:31:11;;;;;;;;;;;;;;;37.42;27.60;98761.72;5053439;28;21130;-84
2021/06/19 12:33:37;;;;;;;;;;;;;;;38.65;28.79;98770.03;5037661;28;19953;-84
2021/06/19 12:36:04;;;;;;;;;;;;;;;38.25;30.55;98761.84;5057887;28;20011;-84
2021/06/19 12:38:29;;;;;;;;;;;;;;;40.40;26.65;98768.53;5057428;28;19924;-86
2021/06/19 12:40:56;;;;;;;;;;;;;;;38.64;29.85;98773.78;5040127;28;21492;-86
2021/06/19 12:43:21;;;;;;;;;;;;;;;38.55;28.78;98768.97;5039148;28;19927;-82
2021/06/19 12:45:48;;;;;;;;;;;;;;;39.09;27.83;98775.75;5057131;28;19977;-81